Time;durP1;ratioP1;P1;durP2;ratioP2;P2;SDS_P1;SDS_P2;PMS_P1;PMS_P2;Temp;Humidity;BMP_temperature;BMP_pressure;BME280_temperature;BME280_humidity;BME280_pressure;Samples;Min_cycle;Max_cycle;Signal;HPM_P1;HPM_P2
2022/01/28 00:00:04;;;;;;;15.40;3.00;;;;;;;;;;5048145;28;20103;-73
2022/01/28 00:02:49;;;;;;;17.50;2.90;;;;;;;;;;5065607;28;20056;-72
2022/01/28 00:05:22;;;;;;;17.57;2.57;;;;;;;;;;5052944;28;20128;-72
2022/01/28 00:07:49;;;;;;;14.35;3.00;;;;;;;;;;5049521;28;20126;-73
2022/01/28 00:10:18;;;;;;;26.60;5.73;;;;;;;;;;5052771;28;20831;-72
2022/01/28 00:39:10;;;;;;;26.57;5.07;;;;;;;;;;5048944;28;20051;-72
2022/01/28 00:41:39;;;;;;;28.37;3.37;;;;;;;;;;5047942;28;20658;-72
2022/01/28 00:44:06;;;;;;;31.83;3.87;;;;;;;;;;5047305;28;20553;-73
2022/01/28 00:46:32;;;;;;;24.80;4.47;;;;;;;;;;5048357;28;20536;-73
2022/01/28 00:48:58;;;;;;;31.37;6.00;;;;;;;;;;5048265;28;20056;-73
2022/01/28 00:51:24;;;;;;;24.20;4.80;;;;;;;;;;5065345;28;20087;-72
2022/01/28 00:53:50;;;;;;;25.43;5.13;;;;;;;;;;5068164;28;20048;-72
2022/01/28 00:56:18;;;;;;;24.03;4.43;;;;;;;;;;5061555;28;20134;-72
2022/01/28 00:58:44;;;;;;;27.40;5.00;;;;;;;;;;5047983;28;20164;-73
2022/01/28 01:01:10;;;;;;;34.73;5.97;;;;;;;;;;5047004;28;20402;-72
2022/01/28 01:03:36;;;;;;;30.23;4.93;;;;;;;;;;5048353;28;20048;-72
2022/01/28 01:06:02;;;;;;;27.13;4.97;;;;;;;;;;5048002;28;20053;-72
2022/01/28 01:08:28;;;;;;;21.80;3.30;;;;;;;;;;5053210;28;20049;-72
2022/01/28 01:10:55;;;;;;;29.00;5.43;;;;;;;;;;5048419;28;20620;-72
2022/01/28 01:13:24;;;;;;;37.17;5.30;;;;;;;;;;5048479;28;20491;-72
2022/01/28 01:15:54;;;;;;;28.80;4.87;;;;;;;;;;5047886;28;20579;-73
2022/01/28 01:18:45;;;;;;;24.27;3.90;;;;;;;;;;5048110;28;20676;-73
2022/01/28 01:21:18;;;;;;;41.20;6.87;;;;;;;;;;5066470;28;20044;-73
2022/01/28 01:23:52;;;;;;;26.73;4.90;;;;;;;;;;5066770;28;20053;-72
2022/01/28 01:26:18;;;;;;;31.65;4.63;;;;;;;;;;5068048;28;20109;-72
2022/01/28 01:28:44;;;;;;;40.07;4.70;;;;;;;;;;5067926;28;20075;-73
2022/01/28 01:31:14;;;;;;;47.17;9.90;;;;;;;;;;5066980;28;20347;-73
2022/01/28 01:33:47;;;;;;;29.07;5.37;;;;;;;;;;5065531;28;20291;-73
2022/01/28 01:36:13;;;;;;;31.77;6.37;;;;;;;;;;5047858;28;20057;-73
2022/01/28 01:38:40;;;;;;;33.63;5.30;;;;;;;;;;5046458;28;20368;-72
2022/01/28 01:41:12;;;;;;;29.43;4.67;;;;;;;;;;5047398;28;20057;-73
2022/01/28 01:43:55;;;;;;;40.90;9.80;;;;;;;;;;5046490;28;20296;-73
2022/01/28 01:54:28;;;;;;;21.87;4.33;;;;;;;;;;5047210;28;20048;-73
2022/01/28 01:56:54;;;;;;;24.67;5.47;;;;;;;;;;5046127;28;20288;-73
2022/01/28 01:59:20;;;;;;;33.50;4.03;;;;;;;;;;5047373;28;20040;-73
2022/01/28 02:01:46;;;;;;;29.03;5.23;;;;;;;;;;5047820;28;20540;-72
2022/01/28 02:04:13;;;;;;;42.73;7.73;;;;;;;;;;5048023;28;20045;-73
2022/01/28 02:06:40;;;;;;;28.40;5.27;;;;;;;;;;5047624;28;20052;-73
2022/01/28 02:09:09;;;;;;;39.17;6.40;;;;;;;;;;5047257;28;20060;-73
2022/01/28 02:11:35;;;;;;;27.50;5.13;;;;;;;;;;5048977;28;20108;-73
2022/01/28 02:14:02;;;;;;;35.93;6.87;;;;;;;;;;5051612;28;20302;-73
2022/01/28 02:16:28;;;;;;;31.43;5.03;;;;;;;;;;5049491;28;20302;-73
2022/01/28 02:18:57;;;;;;;30.00;5.13;;;;;;;;;;5050879;28;20049;-73
2022/01/28 02:21:23;;;;;;;31.50;6.10;;;;;;;;;;5050479;28;20477;-73
2022/01/28 02:23:55;;;;;;;26.27;4.67;;;;;;;;;;5051194;28;20374;-73
2022/01/28 02:26:21;;;;;;;34.90;5.83;;;;;;;;;;5050968;28;20325;-73
2022/01/28 02:28:52;;;;;;;34.57;5.17;;;;;;;;;;5050575;28;20703;-73
2022/01/28 02:31:22;;;;;;;29.63;5.40;;;;;;;;;;5054422;28;20044;-72
2022/01/28 02:33:50;;;;;;;32.00;4.93;;;;;;;;;;5070562;28;20040;-73
2022/01/28 02:36:17;;;;;;;26.53;4.73;;;;;;;;;;5070855;28;20048;-73
2022/01/28 02:38:43;;;;;;;32.77;5.23;;;;;;;;;;5071256;28;20283;-73
2022/01/28 02:41:09;;;;;;;25.63;4.20;;;;;;;;;;5070398;28;20660;-72
2022/01/28 02:43:47;;;;;;;30.70;4.30;;;;;;;;;;5070876;28;20044;-73
2022/01/28 02:46:16;;;;;;;23.70;5.43;;;;;;;;;;5065030;28;20295;-73
2022/01/28 02:48:53;;;;;;;29.67;5.27;;;;;;;;;;5049437;28;20284;-72
2022/01/28 02:51:21;;;;;;;38.23;6.03;;;;;;;;;;5032609;28;20286;-72
2022/01/28 02:53:56;;;;;;;47.23;7.27;;;;;;;;;;5048857;28;21178;-72
2022/01/28 02:56:34;;;;;;;29.33;4.53;;;;;;;;;;5064804;28;20047;-73
2022/01/28 02:59:00;;;;;;;40.33;6.00;;;;;;;;;;5066522;28;20307;-73
2022/01/28 03:01:26;;;;;;;26.70;4.53;;;;;;;;;;5050522;28;20617;-72
2022/01/28 03:03:55;;;;;;;42.97;7.17;;;;;;;;;;5050374;28;20040;-72
2022/01/28 03:06:23;;;;;;;33.07;5.47;;;;;;;;;;5050283;28;20291;-73
2022/01/28 03:16:28;;;;;;;41.37;7.57;;;;;;;;;;5070355;28;20291;-72
2022/01/28 03:23:50;;;;;;;37.40;6.90;;;;;;;;;;5069973;28;20056;-73
2022/01/28 03:26:16;;;;;;;37.10;7.03;;;;;;;;;;5069804;28;20131;-73
2022/01/28 03:28:42;;;;;;;29.30;4.63;;;;;;;;;;5069224;28;20178;-72
2022/01/28 03:31:08;;;;;;;29.63;4.37;;;;;;;;;;5054911;28;20053;-73
2022/01/28 03:33:34;;;;;;;31.50;4.43;;;;;;;;;;5048450;28;20182;-73
2022/01/28 03:36:03;;;;;;;35.97;7.20;;;;;;;;;;5050087;28;20044;-73
2022/01/28 03:38:29;;;;;;;28.50;4.57;;;;;;;;;;5048408;28;20123;-72
2022/01/28 03:40:56;;;;;;;22.47;4.63;;;;;;;;;;5049624;28;20139;-72
2022/01/28 03:43:23;;;;;;;33.90;4.73;;;;;;;;;;5048116;28;20040;-73
2022/01/28 03:45:49;;;;;;;33.00;4.63;;;;;;;;;;5050600;28;20079;-73
2022/01/28 03:48:15;;;;;;;22.97;3.93;;;;;;;;;;5050160;28;20041;-73
2022/01/28 03:50:43;;;;;;;29.43;5.13;;;;;;;;;;5050264;28;20045;-72
2022/01/28 03:53:10;;;;;;;35.20;4.77;;;;;;;;;;5050561;28;20056;-72
2022/01/28 03:55:37;;;;;;;31.70;6.20;;;;;;;;;;5050156;28;20055;-73
2022/01/28 03:58:03;;;;;;;26.20;4.87;;;;;;;;;;5050567;28;20088;-73
2022/01/28 04:00:31;;;;;;;37.47;5.40;;;;;;;;;;5057920;28;20783;-72
2022/01/28 04:03:23;;;;;;;33.97;5.10;;;;;;;;;;5060151;28;20052;-73
2022/01/28 04:11:31;;;;;;;27.47;5.03;;;;;;;;;;5058268;28;20048;-73
2022/01/28 04:14:00;;;;;;;19.97;4.27;;;;;;;;;;5059209;28;20144;-73
2022/01/28 04:17:17;;;;;;;32.77;4.50;;;;;;;;;;5057688;28;20045;-73
2022/01/28 04:19:15;;;;;;;22.77;3.97;;;;;;;;;;5058510;28;20118;-73
2022/01/28 04:21:41;;;;;;;29.73;4.13;;;;;;;;;;5056748;28;20065;-73
2022/01/28 04:24:07;;;;;;;30.03;6.23;;;;;;;;;;5057253;28;20044;-73
2022/01/28 04:26:36;;;;;;;27.43;4.40;;;;;;;;;;5058489;28;20805;-73
2022/01/28 04:29:02;;;;;;;27.97;5.27;;;;;;;;;;5057374;28;20523;-73
2022/01/28 04:31:28;;;;;;;28.97;5.60;;;;;;;;;;5052692;28;20063;-74
2022/01/28 04:33:55;;;;;;;30.13;5.53;;;;;;;;;;5048795;28;20056;-73
2022/01/28 04:36:24;;;;;;;32.90;5.23;;;;;;;;;;5048170;28;20082;-73
2022/01/28 04:38:59;;;;;;;23.03;4.73;;;;;;;;;;5048329;28;20053;-73
2022/01/28 04:41:34;;;;;;;23.07;5.03;;;;;;;;;;5056511;28;20091;-73
2022/01/28 04:44:09;;;;;;;26.53;3.43;;;;;;;;;;5049439;28;20059;-73
2022/01/28 04:49:11;;;;;;;31.10;4.93;;;;;;;;;;5048053;28;20052;-73
2022/01/28 05:02:16;;;;;;;30.00;4.00;;;;;;;;;;5052357;28;20486;-73
2022/01/28 05:28:14;;;;;;;25.13;4.27;;;;;;;;;;5053985;28;20515;-73
2022/01/28 05:30:40;;;;;;;25.70;5.10;;;;;;;;;;5047666;28;20065;-73
2022/01/28 05:33:06;;;;;;;34.63;4.70;;;;;;;;;;5047778;28;20052;-72
2022/01/28 05:35:32;;;;;;;25.07;4.43;;;;;;;;;;5047022;28;20098;-72
2022/01/28 05:37:58;;;;;;;26.23;4.13;;;;;;;;;;5048127;28;20449;-72
2022/01/28 05:40:24;;;;;;;32.13;5.47;;;;;;;;;;5058390;28;20102;-72
2022/01/28 05:42:50;;;;;;;30.43;5.60;;;;;;;;;;5067914;28;20071;-72
2022/01/28 05:45:16;;;;;;;34.50;6.17;;;;;;;;;;5069214;28;20041;-72
2022/01/28 05:47:42;;;;;;;26.37;4.90;;;;;;;;;;5072393;28;20139;-72
2022/01/28 05:50:12;;;;;;;29.37;5.63;;;;;;;;;;5072090;28;20131;-72
2022/01/28 05:52:38;;;;;;;30.73;6.30;;;;;;;;;;5070970;28;20486;-72
2022/01/28 05:55:05;;;;;;;34.57;4.30;;;;;;;;;;5072232;28;20067;-72
2022/01/28 05:57:31;;;;;;;34.77;5.23;;;;;;;;;;5061828;28;20046;-72
2022/01/28 05:59:57;;;;;;;30.50;7.23;;;;;;;;;;5050659;28;20037;-73
2022/01/28 06:02:23;;;;;;;31.90;4.73;;;;;;;;;;5052219;28;20049;-73
2022/01/28 06:04:49;;;;;;;25.47;5.13;;;;;;;;;;5050886;28;20435;-73
2022/01/28 06:07:20;;;;;;;26.67;5.53;;;;;;;;;;5051511;28;20044;-73
2022/01/28 06:09:46;;;;;;;24.80;5.03;;;;;;;;;;5051612;28;20053;-73
2022/01/28 06:12:12;;;;;;;32.90;4.37;;;;;;;;;;5071964;28;20044;-73
2022/01/28 06:14:42;;;;;;;36.63;5.40;;;;;;;;;;5071999;28;20051;-72
2022/01/28 06:17:07;;;;;;;30.40;6.07;;;;;;;;;;5071980;28;20051;-72
2022/01/28 06:19:33;;;;;;;29.87;4.40;;;;;;;;;;5071301;28;20048;-72
2022/01/28 06:21:59;;;;;;;35.27;4.70;;;;;;;;;;5067491;28;20049;-72
2022/01/28 06:24:25;;;;;;;31.53;6.20;;;;;;;;;;5050376;28;20099;-72
2022/01/28 06:26:51;;;;;;;26.97;4.20;;;;;;;;;;5054009;28;20045;-72
2022/01/28 06:29:17;;;;;;;37.47;5.50;;;;;;;;;;5064843;28;20048;-72
2022/01/28 06:31:44;;;;;;;34.43;4.70;;;;;;;;;;5059989;28;20044;-72
2022/01/28 06:34:12;;;;;;;29.43;4.97;;;;;;;;;;5071944;28;20036;-72
2022/01/28 06:36:38;;;;;;;37.07;5.90;;;;;;;;;;5057703;28;20467;-72
2022/01/28 06:39:04;;;;;;;44.20;8.13;;;;;;;;;;5052255;28;20128;-72
2022/01/28 06:41:31;;;;;;;36.70;4.70;;;;;;;;;;5050312;28;20466;-72
2022/01/28 06:43:57;;;;;;;32.77;5.60;;;;;;;;;;5052234;28;20110;-72
2022/01/28 06:46:24;;;;;;;38.13;6.53;;;;;;;;;;5050643;28;20083;-72
2022/01/28 06:48:50;;;;;;;35.17;4.73;;;;;;;;;;5051230;28;20120;-72
2022/01/28 06:51:16;;;;;;;29.83;5.20;;;;;;;;;;5033686;28;20370;-72
2022/01/28 06:53:42;;;;;;;38.73;6.93;;;;;;;;;;5049618;28;20048;-72
2022/01/28 06:56:08;;;;;;;29.43;5.10;;;;;;;;;;5051084;28;20665;-72
2022/01/28 06:58:34;;;;;;;31.87;5.97;;;;;;;;;;5049812;28;20271;-72
2022/01/28 07:01:00;;;;;;;29.73;4.83;;;;;;;;;;5049448;28;20053;-72
2022/01/28 07:03:26;;;;;;;35.03;7.23;;;;;;;;;;5051134;28;20426;-72
2022/01/28 07:05:52;;;;;;;37.63;5.43;;;;;;;;;;5050980;28;20537;-72
2022/01/28 07:08:18;;;;;;;32.03;5.20;;;;;;;;;;5050469;28;20051;-73
2022/01/28 07:10:44;;;;;;;36.10;5.33;;;;;;;;;;5050668;28;20057;-73
2022/01/28 07:13:13;;;;;;;39.50;6.97;;;;;;;;;;5052221;28;20636;-73
2022/01/28 07:15:39;;;;;;;26.60;5.30;;;;;;;;;;5050495;28;20291;-72
2022/01/28 07:18:06;;;;;;;27.03;5.10;;;;;;;;;;5049991;28;20298;-73
2022/01/28 07:20:33;;;;;;;34.03;5.60;;;;;;;;;;5050826;28;20382;-72
2022/01/28 07:23:00;;;;;;;32.13;5.00;;;;;;;;;;5050829;28;20284;-72
2022/01/28 07:25:26;;;;;;;34.03;6.47;;;;;;;;;;5055563;28;20298;-73
2022/01/28 07:27:52;;;;;;;26.83;5.60;;;;;;;;;;5069768;28;20279;-72
2022/01/28 07:30:18;;;;;;;24.53;5.07;;;;;;;;;;5057812;28;20314;-73
2022/01/28 07:32:44;;;;;;;33.03;5.87;;;;;;;;;;5050156;28;20897;-72
2022/01/28 07:35:10;;;;;;;36.10;7.20;;;;;;;;;;5050108;28;20503;-72
2022/01/28 07:37:37;;;;;;;33.43;4.80;;;;;;;;;;5060053;28;20731;-72
2022/01/28 07:40:03;;;;;;;26.70;4.70;;;;;;;;;;5070520;28;20294;-72
2022/01/28 07:42:33;;;;;;;27.60;4.90;;;;;;;;;;5070435;28;20293;-72
2022/01/28 07:45:00;;;;;;;35.10;5.77;;;;;;;;;;5051471;28;20291;-72
2022/01/28 07:47:26;;;;;;;30.20;4.93;;;;;;;;;;5049810;28;20302;-73
2022/01/28 07:49:52;;;;;;;25.63;4.43;;;;;;;;;;5049405;28;20308;-72
2022/01/28 07:52:18;;;;;;;29.63;4.83;;;;;;;;;;5051710;28;20091;-72
2022/01/28 07:54:48;;;;;;;34.63;6.67;;;;;;;;;;5066436;28;20286;-73
2022/01/28 07:57:14;;;;;;;30.40;4.77;;;;;;;;;;5051825;28;20080;-72
2022/01/28 07:59:40;;;;;;;28.43;5.97;;;;;;;;;;5058931;28;20352;-72
2022/01/28 08:02:06;;;;;;;38.03;6.17;;;;;;;;;;5070105;28;20282;-72
2022/01/28 08:04:32;;;;;;;27.33;5.67;;;;;;;;;;5065696;28;20822;-72
2022/01/28 08:06:58;;;;;;;23.63;3.80;;;;;;;;;;5055225;28;20408;-73
2022/01/28 08:09:24;;;;;;;24.60;6.10;;;;;;;;;;5063491;28;20048;-73
2022/01/28 08:11:50;;;;;;;30.53;4.63;;;;;;;;;;5067140;28;20283;-73
2022/01/28 08:14:16;;;;;;;31.63;5.40;;;;;;;;;;5064231;28;20494;-73
2022/01/28 08:16:42;;;;;;;36.97;5.63;;;;;;;;;;5065399;28;20049;-73
2022/01/28 08:19:08;;;;;;;30.70;6.23;;;;;;;;;;5066929;28;20052;-72
2022/01/28 08:21:34;;;;;;;23.10;4.23;;;;;;;;;;5067684;28;20469;-72
2022/01/28 08:24:00;;;;;;;29.93;7.17;;;;;;;;;;5067023;28;20132;-72
2022/01/28 08:26:26;;;;;;;33.73;5.90;;;;;;;;;;5053340;28;20136;-72
2022/01/28 08:28:52;;;;;;;28.10;4.37;;;;;;;;;;5035837;28;20071;-73
2022/01/28 08:31:18;;;;;;;35.93;5.50;;;;;;;;;;5052897;28;20049;-73
2022/01/28 08:33:44;;;;;;;21.77;5.30;;;;;;;;;;5054255;28;20409;-73
2022/01/28 08:36:11;;;;;;;33.57;6.57;;;;;;;;;;5054437;28;20051;-72
2022/01/28 08:38:44;;;;;;;35.53;5.77;;;;;;;;;;5058557;28;20049;-72
2022/01/28 08:41:12;;;;;;;22.52;5.82;;;;;;;;;;5056823;28;20055;-72
2022/01/28 08:43:38;;;;;;;24.23;5.23;;;;;;;;;;5056656;28;20509;-72
2022/01/28 08:46:04;;;;;;;24.27;5.07;;;;;;;;;;5064607;28;20539;-72
2022/01/28 08:48:30;;;;;;;21.97;4.70;;;;;;;;;;5050015;28;20049;-72
2022/01/28 08:50:56;;;;;;;22.70;4.67;;;;;;;;;;5048342;28;20041;-72
2022/01/28 08:53:22;;;;;;;40.17;6.10;;;;;;;;;;5059260;28;20052;-72
2022/01/28 08:55:49;;;;;;;30.37;5.23;;;;;;;;;;5069108;28;20194;-72
2022/01/28 08:58:15;;;;;;;30.53;6.03;;;;;;;;;;5068858;28;20106;-72
2022/01/28 09:00:45;;;;;;;32.10;5.97;;;;;;;;;;5067430;28;20490;-72
2022/01/28 09:03:11;;;;;;;28.50;4.70;;;;;;;;;;5068742;28;20065;-72
2022/01/28 09:05:38;;;;;;;27.50;4.47;;;;;;;;;;5068865;28;20579;-72
2022/01/28 09:08:08;;;;;;;26.33;5.10;;;;;;;;;;5069038;28;20063;-72
2022/01/28 09:10:37;;;;;;;29.97;5.80;;;;;;;;;;5066617;28;20048;-72
2022/01/28 09:15:36;;;;;;;27.00;6.03;;;;;;;;;;5068897;28;20509;-72
2022/01/28 09:18:03;;;;;;;25.47;5.67;;;;;;;;;;5068550;28;20106;-72
2022/01/28 09:20:30;;;;;;;27.07;5.03;;;;;;;;;;5066575;28;20066;-72
2022/01/28 09:22:57;;;;;;;22.23;4.80;;;;;;;;;;5068120;28;20041;-72
2022/01/28 09:25:23;;;;;;;28.63;5.27;;;;;;;;;;5066986;28;20511;-72
2022/01/28 09:27:49;;;;;;;35.50;6.23;;;;;;;;;;5068379;28;20222;-72
2022/01/28 09:30:16;;;;;;;30.80;5.13;;;;;;;;;;5050241;28;20053;-72
2022/01/28 09:32:42;;;;;;;24.37;4.83;;;;;;;;;;5068620;28;20088;-72
2022/01/28 09:35:08;;;;;;;35.43;6.30;;;;;;;;;;5068319;28;20122;-72
2022/01/28 09:37:34;;;;;;;28.57;7.20;;;;;;;;;;5067856;28;20489;-72
2022/01/28 09:40:01;;;;;;;30.80;5.27;;;;;;;;;;5068012;28;20048;-72
2022/01/28 09:42:30;;;;;;;34.40;7.13;;;;;;;;;;5068172;28;20074;-72
2022/01/28 09:44:58;;;;;;;31.57;5.93;;;;;;;;;;5067294;28;20079;-72
2022/01/28 09:47:24;;;;;;;22.80;5.47;;;;;;;;;;5068442;28;20106;-72
2022/01/28 09:49:54;;;;;;;29.90;5.33;;;;;;;;;;5067611;28;20044;-72
2022/01/28 09:52:20;;;;;;;27.70;5.63;;;;;;;;;;5068386;28;20414;-72
2022/01/28 09:54:47;;;;;;;25.97;5.97;;;;;;;;;;5049113;28;20049;-72
2022/01/28 09:57:16;;;;;;;29.07;4.60;;;;;;;;;;5048237;28;20208;-72
2022/01/28 09:59:43;;;;;;;26.03;4.10;;;;;;;;;;5048413;28;20048;-72
2022/01/28 10:02:09;;;;;;;26.00;5.03;;;;;;;;;;5047572;28;20045;-72
2022/01/28 10:04:35;;;;;;;34.40;5.80;;;;;;;;;;5048213;28;20080;-72
2022/01/28 10:07:11;;;;;;;30.00;4.83;;;;;;;;;;5048128;28;20056;-72
2022/01/28 10:09:37;;;;;;;24.97;6.33;;;;;;;;;;5047909;28;20063;-72
2022/01/28 10:12:17;;;;;;;29.23;5.43;;;;;;;;;;5046648;28;20045;-72
2022/01/28 10:15:06;;;;;;;37.00;5.87;;;;;;;;;;5047398;28;20053;-72
2022/01/28 10:17:52;;;;;;;34.50;6.77;;;;;;;;;;5046616;28;20053;-72
2022/01/28 10:20:18;;;;;;;25.70;6.00;;;;;;;;;;5047678;28;20052;-72
2022/01/28 10:22:55;;;;;;;30.57;6.50;;;;;;;;;;5048055;28;20067;-72
2022/01/28 10:25:34;;;;;;;24.73;5.17;;;;;;;;;;5047243;28;20076;-72
2022/01/28 10:28:01;;;;;;;31.73;5.53;;;;;;;;;;5048053;28;20487;-72
2022/01/28 10:30:27;;;;;;;27.77;5.87;;;;;;;;;;5047159;28;20429;-72
2022/01/28 10:33:12;;;;;;;31.97;5.33;;;;;;;;;;5049720;28;20053;-72
2022/01/28 10:35:38;;;;;;;34.13;8.47;;;;;;;;;;5051311;28;20079;-72
2022/01/28 10:38:07;;;;;;;28.70;6.90;;;;;;;;;;5050957;28;20504;-72
2022/01/28 10:40:33;;;;;;;27.30;5.63;;;;;;;;;;5051701;28;20131;-72
2022/01/28 10:43:00;;;;;;;28.00;5.97;;;;;;;;;;5051195;28;20052;-72
2022/01/28 10:45:30;;;;;;;30.03;7.23;;;;;;;;;;5050986;28;20053;-72
2022/01/28 10:47:57;;;;;;;38.70;6.50;;;;;;;;;;5051210;28;20049;-72
2022/01/28 10:50:26;;;;;;;30.33;5.00;;;;;;;;;;5050594;28;20049;-72
2022/01/28 10:52:58;;;;;;;30.10;5.70;;;;;;;;;;5054540;28;20264;-72
2022/01/28 10:55:24;;;;;;;27.27;5.23;;;;;;;;;;5071070;28;20422;-72
2022/01/28 10:58:01;;;;;;;28.63;5.37;;;;;;;;;;5070908;28;20040;-72
2022/01/28 11:00:29;;;;;;;24.10;4.87;;;;;;;;;;5070147;28;20041;-72
2022/01/28 11:02:56;;;;;;;26.13;5.70;;;;;;;;;;5071086;28;20188;-72
2022/01/28 11:05:25;;;;;;;29.13;6.27;;;;;;;;;;5070816;28;20048;-72
2022/01/28 11:07:51;;;;;;;31.53;5.37;;;;;;;;;;5052261;28;20059;-72
2022/01/28 11:10:18;;;;;;;24.17;6.33;;;;;;;;;;5067189;28;20441;-72
2022/01/28 11:12:44;;;;;;;28.17;6.27;;;;;;;;;;5071051;28;20067;-72
2022/01/28 11:15:10;;;;;;;28.63;6.13;;;;;;;;;;5070858;28;20136;-72
2022/01/28 11:17:37;;;;;;;24.30;6.33;;;;;;;;;;5069649;28;20056;-72
2022/01/28 11:20:04;;;;;;;28.13;5.07;;;;;;;;;;5070749;28;20048;-72
2022/01/28 11:22:43;;;;;;;28.83;6.97;;;;;;;;;;5067577;28;20080;-72
2022/01/28 11:25:15;;;;;;;33.47;6.63;;;;;;;;;;5052236;28;20113;-71
2022/01/28 11:27:41;;;;;;;26.53;5.70;;;;;;;;;;5065503;28;20052;-71
2022/01/28 11:30:28;;;;;;;26.43;5.10;;;;;;;;;;5066040;28;20099;-71
2022/01/28 11:33:08;;;;;;;29.10;5.37;;;;;;;;;;5050511;28;20528;-72
2022/01/28 11:35:37;;;;;;;24.73;5.17;;;;;;;;;;5049905;28;20059;-72
2022/01/28 11:38:32;;;;;;;23.27;5.17;;;;;;;;;;5050037;28;20045;-72
2022/01/28 11:41:00;;;;;;;20.10;4.77;;;;;;;;;;5050168;28;20048;-72
2022/01/28 11:43:30;;;;;;;24.30;4.90;;;;;;;;;;5063525;28;20055;-72
2022/01/28 11:46:16;;;;;;;25.40;6.43;;;;;;;;;;5070318;28;20044;-72
2022/01/28 11:48:58;;;;;;;21.17;4.80;;;;;;;;;;5070394;28;20049;-72
2022/01/28 11:51:36;;;;;;;29.20;5.70;;;;;;;;;;5069478;28;20041;-72
2022/01/28 11:54:04;;;;;;;27.57;4.73;;;;;;;;;;5063445;28;20824;-72
2022/01/28 11:56:30;;;;;;;27.80;5.03;;;;;;;;;;5065901;28;20051;-72
2022/01/28 11:58:58;;;;;;;22.43;4.07;;;;;;;;;;5069833;28;20478;-72
2022/01/28 12:01:25;;;;;;;27.00;6.57;;;;;;;;;;5052559;28;20613;-72
2022/01/28 12:03:51;;;;;;;22.03;4.37;;;;;;;;;;5053947;28;20044;-72
2022/01/28 12:06:20;;;;;;;20.07;4.00;;;;;;;;;;5070193;28;20045;-72
2022/01/28 12:08:47;;;;;;;25.97;3.90;;;;;;;;;;5069853;28;20063;-72
2022/01/28 12:11:25;;;;;;;37.67;6.13;;;;;;;;;;5069216;28;20063;-72
2022/01/28 12:14:07;;;;;;;23.87;6.03;;;;;;;;;;5068248;28;20041;-72
2022/01/28 12:16:35;;;;;;;22.83;4.13;;;;;;;;;;5068573;28;20052;-72
2022/01/28 12:19:02;;;;;;;18.30;3.90;;;;;;;;;;5061782;28;20052;-72
2022/01/28 12:21:34;;;;;;;16.97;4.30;;;;;;;;;;5068390;28;20052;-72
2022/01/28 12:24:19;;;;;;;28.77;5.67;;;;;;;;;;5067845;28;20428;-72
2022/01/28 12:26:57;;;;;;;19.67;4.10;;;;;;;;;;5062247;28;20071;-72
2022/01/28 12:29:30;;;;;;;28.07;6.57;;;;;;;;;;5058514;28;20113;-72
2022/01/28 12:32:00;;;;;;;29.43;5.53;;;;;;;;;;5067412;28;20574;-72
2022/01/28 12:34:26;;;;;;;25.60;6.40;;;;;;;;;;5068871;28;20044;-72
2022/01/28 12:36:56;;;;;;;30.80;6.10;;;;;;;;;;5067917;28;20592;-72
2022/01/28 12:39:35;;;;;;;23.00;5.73;;;;;;;;;;5066949;28;20052;-72
2022/01/28 12:44:31;;;;;;;29.83;6.27;;;;;;;;;;5062860;28;20383;-72
2022/01/28 12:47:02;;;;;;;29.90;6.00;;;;;;;;;;5067502;28;20039;-72
2022/01/28 12:49:29;;;;;;;23.73;5.80;;;;;;;;;;5068024;28;20045;-72
2022/01/28 12:51:59;;;;;;;26.83;6.90;;;;;;;;;;5068034;28;20059;-72
2022/01/28 12:54:33;;;;;;;32.60;6.97;;;;;;;;;;5064709;28;20041;-72
2022/01/28 12:56:59;;;;;;;29.10;6.70;;;;;;;;;;5066122;28;20439;-72
2022/01/28 12:59:25;;;;;;;23.17;5.87;;;;;;;;;;5066859;28;20127;-72
2022/01/28 13:01:52;;;;;;;23.93;5.10;;;;;;;;;;5067376;28;20041;-72
2022/01/28 13:04:21;;;;;;;24.50;5.23;;;;;;;;;;5066622;28;20062;-72
2022/01/28 13:09:13;;;;;;;22.07;5.80;;;;;;;;;;5061418;28;20048;-72
2022/01/28 13:11:43;;;;;;;23.47;5.00;;;;;;;;;;5067717;28;20056;-72
2022/01/28 13:14:10;;;;;;;23.33;4.70;;;;;;;;;;5063978;28;20048;-72
2022/01/28 13:16:37;;;;;;;29.83;4.73;;;;;;;;;;5054164;28;20044;-72
2022/01/28 13:19:04;;;;;;;20.63;3.73;;;;;;;;;;5053573;28;20044;-73
2022/01/28 13:21:31;;;;;;;29.80;4.90;;;;;;;;;;5061954;28;20386;-73
2022/01/28 13:24:07;;;;;;;23.20;5.20;;;;;;;;;;5069722;28;20055;-73
2022/01/28 13:26:33;;;;;;;21.93;3.97;;;;;;;;;;5049503;28;20491;-73
2022/01/28 13:29:10;;;;;;;23.73;4.97;;;;;;;;;;5047442;28;20143;-73
2022/01/28 13:31:38;;;;;;;35.57;5.50;;;;;;;;;;5047607;28;20053;-73
2022/01/28 13:34:06;;;;;;;24.77;3.93;;;;;;;;;;5047602;28;20533;-73
2022/01/28 13:36:45;;;;;;;24.60;4.80;;;;;;;;;;5047439;28;20092;-73
2022/01/28 13:39:21;;;;;;;29.93;4.90;;;;;;;;;;5047103;28;20041;-73
2022/01/28 13:41:50;;;;;;;21.50;3.77;;;;;;;;;;5047440;28;20057;-72
2022/01/28 13:44:35;;;;;;;25.70;4.37;;;;;;;;;;5047538;28;20052;-73
2022/01/28 13:47:02;;;;;;;17.27;3.40;;;;;;;;;;5047667;28;20419;-73
2022/01/28 13:49:36;;;;;;;25.17;3.57;;;;;;;;;;5046853;28;20057;-72
2022/01/28 13:52:12;;;;;;;17.20;3.60;;;;;;;;;;5029667;28;20053;-72
2022/01/28 13:54:41;;;;;;;18.70;4.97;;;;;;;;;;5047497;28;20094;-73
2022/01/28 13:57:09;;;;;;;17.40;3.47;;;;;;;;;;5047537;28;20052;-72
2022/01/28 13:59:36;;;;;;;24.80;3.67;;;;;;;;;;5046837;28;20499;-72
2022/01/28 14:02:02;;;;;;;24.47;5.23;;;;;;;;;;5047780;28;20408;-72
2022/01/28 14:04:35;;;;;;;17.03;3.17;;;;;;;;;;5047105;28;20493;-72
2022/01/28 14:07:11;;;;;;;18.00;3.80;;;;;;;;;;5048732;28;20442;-72
2022/01/28 14:09:37;;;;;;;;;;;;;;;;;;5051782;28;20182;-73
2022/01/28 14:12:03;;;;;;;17.70;2.93;;;;;;;;;;5051588;28;20011;-73
2022/01/28 14:16:58;;;;;;;15.77;3.13;;;;;;;;;;5049876;28;20045;-72
2022/01/28 14:19:26;;;;;;;21.57;4.43;;;;;;;;;;5050962;28;20052;-73
2022/01/28 14:21:53;;;;;;;24.67;4.57;;;;;;;;;;5050790;28;20052;-72
2022/01/28 14:24:20;;;;;;;21.43;3.47;;;;;;;;;;5050814;28;20155;-73
2022/01/28 14:26:56;;;;;;;22.03;3.73;;;;;;;;;;5050610;28;20045;-73
2022/01/28 14:32:09;;;;;;;19.07;4.00;;;;;;;;;;5050442;28;20045;-72
2022/01/28 14:34:36;;;;;;;20.43;3.40;;;;;;;;;;5049714;28;20758;-73
2022/01/28 14:37:03;;;;;;;26.20;4.77;;;;;;;;;;5050820;28;20052;-73
2022/01/28 14:39:29;;;;;;;18.80;3.10;;;;;;;;;;5049355;28;20090;-72
2022/01/28 14:42:01;;;;;;;19.27;3.90;;;;;;;;;;5051066;28;20442;-72
2022/01/28 14:44:27;;;;;;;10.97;3.27;;;;;;;;;;5050431;28;20049;-72
2022/01/28 14:46:53;;;;;;;16.27;3.07;;;;;;;;;;5050192;28;20406;-72
2022/01/28 14:49:19;;;;;;;20.83;4.27;;;;;;;;;;5049129;28;20049;-72
2022/01/28 14:51:51;;;;;;;15.13;2.97;;;;;;;;;;5049175;28;20056;-72
2022/01/28 14:54:18;;;;;;;21.53;3.70;;;;;;;;;;5050159;28;20087;-72
2022/01/28 14:56:44;;;;;;;22.83;3.90;;;;;;;;;;5050351;28;20815;-72
2022/01/28 14:59:13;;;;;;;17.80;4.37;;;;;;;;;;5050780;28;20048;-72
2022/01/28 15:01:39;;;;;;;24.90;3.77;;;;;;;;;;5050466;28;20053;-72
2022/01/28 15:04:05;;;;;;;16.23;2.60;;;;;;;;;;5049953;28;20060;-72
2022/01/28 15:06:31;;;;;;;16.37;3.37;;;;;;;;;;5050455;28;20399;-72
2022/01/28 15:09:00;;;;;;;15.07;3.03;;;;;;;;;;5048562;28;20052;-72
2022/01/28 15:11:47;;;;;;;14.97;2.63;;;;;;;;;;5049892;28;20085;-72
2022/01/28 15:14:17;;;;;;;20.80;3.13;;;;;;;;;;5049677;28;20068;-72
2022/01/28 15:16:43;;;;;;;16.33;2.67;;;;;;;;;;5049779;28;20056;-72
2022/01/28 15:19:10;;;;;;;18.53;3.47;;;;;;;;;;5049321;28;20045;-72
2022/01/28 15:21:36;;;;;;;14.23;2.53;;;;;;;;;;5048845;28;20045;-72
2022/01/28 15:24:03;;;;;;;15.00;3.20;;;;;;;;;;5049475;28;20067;-72
2022/01/28 15:26:30;;;;;;;19.50;3.30;;;;;;;;;;5049655;28;20041;-73
2022/01/28 15:29:09;;;;;;;20.53;3.07;;;;;;;;;;5050486;28;20068;-73
2022/01/28 15:36:50;;;;;;;15.63;2.77;;;;;;;;;;5058741;28;20116;-72
2022/01/28 15:39:16;;;;;;;15.47;2.73;;;;;;;;;;5058904;28;20110;-72
2022/01/28 15:41:42;;;;;;;11.17;2.27;;;;;;;;;;5059981;28;20048;-73
2022/01/28 15:44:09;;;;;;;13.17;2.57;;;;;;;;;;5052446;28;20079;-72
2022/01/28 15:46:39;;;;;;;13.70;2.60;;;;;;;;;;5058479;28;20044;-73
2022/01/28 15:49:12;;;;;;;13.37;2.60;;;;;;;;;;5058998;28;20049;-72
2022/01/28 15:51:38;;;;;;;20.50;3.28;;;;;;;;;;5056878;28;20044;-72
2022/01/28 15:54:04;;;;;;;18.10;2.43;;;;;;;;;;5059179;28;20048;-72
2022/01/28 15:56:30;;;;;;;17.63;3.30;;;;;;;;;;5058961;28;20056;-72
2022/01/28 15:58:56;;;;;;;19.07;3.03;;;;;;;;;;5060194;28;20685;-73
2022/01/28 16:01:24;;;;;;;12.93;3.00;;;;;;;;;;5057312;28;20049;-72
2022/01/28 16:03:53;;;;;;;11.53;2.57;;;;;;;;;;5060786;28;20119;-72
2022/01/28 16:06:19;;;;;;;11.23;2.30;;;;;;;;;;5057713;28;20469;-73
2022/01/28 16:08:46;;;;;;;12.43;2.30;;;;;;;;;;5057750;28;20762;-72
2022/01/28 16:11:18;;;;;;;20.87;3.73;;;;;;;;;;5058610;28;20517;-72
2022/01/28 16:19:03;;;;;;;23.97;5.67;;;;;;;;;;5058190;28;20128;-72
2022/01/28 16:21:30;;;;;;;16.30;4.33;;;;;;;;;;5059124;28;20051;-72
2022/01/28 16:23:59;;;;;;;13.57;3.43;;;;;;;;;;5058255;28;20047;-72
2022/01/28 16:26:26;;;;;;;20.07;3.43;;;;;;;;;;5055425;28;20049;-72
2022/01/28 16:28:52;;;;;;;16.90;3.40;;;;;;;;;;5049834;28;20048;-72
2022/01/28 16:31:18;;;;;;;21.33;4.60;;;;;;;;;;5050841;28;20520;-72